Terminal Aerodrome Forecast
Issued by NWS

Home | Current Version | Previous Version | Text Only | Print | Product List | Glossary On
Versions: 1 2 3 4 5 6 7 8 9 10 11 12 13 14 15 16
000
FTUS46 KSEW 311700
TAFBLI
TAF
KBLI 311732Z 3118/0118 00000KT P6SM -RA SCT003 BKN045 OVC050
      TEMPO 3118/3121 3SM -RA BR OVC003
     FM312100 VRB04KT P6SM -SHRA OVC025
     FM010000 00000KT P6SM VCSH OVC025
     FM011100 00000KT P6SM BKN050=

USA.gov is the U.S. government's official web portal to all federal, state and local government web resources and services.